Time,TemperatureF,DewpointF,PressureIn,WindDirection,WindDirectionDegrees,WindSpeedMPH,WindSpeedGustMPH,Humidity,HourlyPrecipIn,Conditions,Clouds,dailyrainin,SoftwareType,DateUTC
2013-03-10 00:01:00,42.0,41.0,-100.00,SE,135,2.0,3.0,99,-99.99,,,-99.99,,2013-03-10 06:01:00,
2013-03-10 00:11:00,42.0,41.0,-100.00,SE,125,4.0,6.0,98,-99.99,,,-99.99,,2013-03-10 06:11:00,
2013-03-10 00:22:00,42.0,42.0,-100.00,South,170,1.0,6.0,98,-99.99,,,-99.99,,2013-03-10 06:22:00,
2013-03-10 00:32:00,42.0,42.0,-100.00,South,170,1.0,6.0,98,-99.99,,,-99.99,,2013-03-10 06:32:00,
2013-03-10 00:42:00,41.0,41.0,-100.00,ENE,65,1.0,4.0,99,-99.99,,,-99.99,,2013-03-10 06:42:00,
2013-03-10 00:52:00,42.0,41.0,-100.00,ESE,115,4.0,7.0,99,-99.99,,,-99.99,,2013-03-10 06:52:00,
2013-03-10 01:02:00,42.0,41.0,-100.00,ESE,115,4.0,7.0,99,-99.99,,,-99.99,,2013-03-10 07:02:00,
2013-03-10 01:11:00,44.0,44.0,-100.00,ESE,120,12.0,21.0,99,-99.99,,,-99.99,,2013-03-10 07:11:00,
2013-03-10 01:21:00,45.0,44.0,-100.00,SE,130,9.0,19.0,96,-99.99,,,-99.99,,2013-03-10 07:21:00,
2013-03-10 01:32:00,45.0,44.0,-100.00,SE,130,9.0,19.0,96,-99.99,,,-99.99,,2013-03-10 07:32:00,
2013-03-10 01:42:00,44.0,43.0,-100.00,SSE,155,5.0,12.0,98,-99.99,,,-99.99,,2013-03-10 07:42:00,
2013-03-10 01:52:00,43.0,43.0,-100.00,South,170,5.0,9.0,98,-99.99,,,-99.99,,2013-03-10 07:52:00,
2013-03-10 03:01:00,43.0,43.0,-100.00,South,170,5.0,9.0,98,-99.99,,,-99.99,,2013-03-10 08:01:00,
2013-03-10 03:11:00,43.0,43.0,-100.00,SE,145,4.0,12.0,99,-99.99,,,-99.99,,2013-03-10 08:11:00,
2013-03-10 03:21:00,43.0,42.0,-100.00,SSW,210,2.0,9.0,99,-99.99,,,-99.99,,2013-03-10 08:21:00,
2013-03-10 03:31:00,43.0,42.0,-100.00,SSW,210,2.0,9.0,99,-99.99,,,-99.99,,2013-03-10 08:31:00,
2013-03-10 03:42:00,43.0,43.0,-100.00,South,185,2.0,9.0,99,-99.99,,,-99.99,,2013-03-10 08:42:00,
2013-03-10 03:52:00,43.0,-99.9,-100.00,SSE,165,4.0,9.0,-999,-99.99,,,-99.99,,2013-03-10 08:52:00,
2013-03-10 04:02:00,43.0,-99.9,-100.00,SSE,165,4.0,9.0,-999,-99.99,,,-99.99,,2013-03-10 09:02:00,
2013-03-10 04:11:00,43.0,-99.9,-100.00,SE,145,5.0,10.0,-999,-99.99,,,-99.99,,2013-03-10 09:11:00,
2013-03-10 04:21:00,44.0,-99.9,-100.00,ESE,120,10.0,14.0,-999,-99.99,,,-99.99,,2013-03-10 09:21:00,
2013-03-10 04:32:00,44.0,-99.9,-100.00,ESE,120,10.0,14.0,-999,-99.99,,,-99.99,,2013-03-10 09:32:00,
2013-03-10 04:42:00,44.0,-99.9,-100.00,ESE,120,10.0,14.0,-999,-99.99,,,-99.99,,2013-03-10 09:42:00,
2013-03-10 04:52:00,45.0,-99.9,-100.00,SE,130,5.0,10.0,-999,-99.99,,,-99.99,,2013-03-10 09:52:00,
2013-03-10 05:02:00,45.0,-99.9,-100.00,SE,130,5.0,10.0,-999,-99.99,,,-99.99,,2013-03-10 10:02:00,
2013-03-10 05:11:00,43.0,-99.9,-100.00,NNE,30,4.0,6.0,-999,-99.99,,,-99.99,,2013-03-10 10:11:00,
2013-03-10 05:22:00,43.0,-99.9,-100.00,NNE,30,4.0,6.0,-999,-99.99,,,-99.99,,2013-03-10 10:22:00,
2013-03-10 05:32:00,45.0,-99.9,-100.00,ESE,105,4.0,9.0,-999,-99.99,,,-99.99,,2013-03-10 10:32:00,
2013-03-10 05:42:00,45.0,-99.9,-100.00,ESE,105,4.0,9.0,-999,-99.99,,,-99.99,,2013-03-10 10:42:00,
2013-03-10 05:52:00,45.0,-99.9,-100.00,NE,35,6.0,17.0,-999,-99.99,,,-99.99,,2013-03-10 10:52:00,
2013-03-10 06:02:00,45.0,-99.9,-100.00,NE,35,6.0,17.0,-999,-99.99,,,-99.99,,2013-03-10 11:02:00,
2013-03-10 06:12:00,45.0,-99.9,-100.00,SSW,195,7.0,19.0,-999,-99.99,,,-99.99,,2013-03-10 11:12:00,
2013-03-10 06:22:00,45.0,-99.9,-100.00,South,180,4.0,11.0,-999,-99.99,,,-99.99,,2013-03-10 11:22:00,
2013-03-10 06:32:00,45.0,-99.9,-100.00,South,180,4.0,11.0,-999,-99.99,,,-99.99,,2013-03-10 11:32:00,
2013-03-10 06:42:00,45.0,-99.9,-100.00,SE,125,4.0,7.0,-999,-99.99,,,-99.99,,2013-03-10 11:42:00,
2013-03-10 06:52:00,43.0,43.0,-100.00,SE,125,4.0,7.0,99,-99.99,,,-99.99,,2013-03-10 11:52:00,
2013-03-10 07:01:00,43.0,43.0,-100.00,SE,125,4.0,7.0,99,-99.99,,,-99.99,,2013-03-10 12:01:00,
2013-03-10 07:11:00,42.0,42.0,-100.00,East,95,2.0,6.0,99,-99.99,,,-99.99,,2013-03-10 12:11:00,
2013-03-10 07:21:00,42.0,-99.9,-100.00,NE,55,3.0,5.0,-999,-99.99,,,-99.99,,2013-03-10 12:21:00,
2013-03-10 07:32:00,42.0,-99.9,-100.00,NE,55,3.0,5.0,-999,-99.99,,,-99.99,,2013-03-10 12:32:00,
2013-03-10 07:42:00,41.0,-99.9,-100.00,NE,50,1.0,4.0,-999,-99.99,,,-99.99,,2013-03-10 12:42:00,
2013-03-10 07:52:00,42.0,-99.9,-100.00,ESE,120,2.0,5.0,-999,-99.99,,,-99.99,,2013-03-10 12:52:00,
2013-03-10 08:01:00,42.0,-99.9,-100.00,ESE,120,2.0,5.0,-999,-99.99,,,-99.99,,2013-03-10 13:01:00,
2013-03-10 08:11:00,42.0,-99.9,-100.00,East,95,0.0,2.0,-999,-99.99,,,-99.99,,2013-03-10 13:11:00,
2013-03-10 08:21:00,41.0,-99.9,-100.00,NE,50,0.0,2.0,-999,-99.99,,,-99.99,,2013-03-10 13:21:00,
2013-03-10 08:32:00,41.0,-99.9,-100.00,NE,50,0.0,2.0,-999,-99.99,,,-99.99,,2013-03-10 13:32:00,
2013-03-10 08:42:00,41.0,-99.9,-100.00,East,80,1.0,1.0,-999,-99.99,,,-99.99,,2013-03-10 13:42:00,
2013-03-10 08:52:00,41.0,-99.9,-100.00,East,95,1.0,4.0,-999,-99.99,,,-99.99,,2013-03-10 13:52:00,
2013-03-10 09:02:00,41.0,-99.9,-100.00,East,95,1.0,4.0,-999,-99.99,,,-99.99,,2013-03-10 14:02:00,
2013-03-10 09:12:00,41.0,-99.9,-100.00,North,5,1.0,4.0,-999,-99.99,,,-99.99,,2013-03-10 14:12:00,
2013-03-10 09:22:00,41.0,-99.9,-100.00,North,10,1.0,1.0,-999,-99.99,,,-99.99,,2013-03-10 14:22:00,
2013-03-10 09:32:00,41.0,-99.9,-100.00,North,10,1.0,1.0,-999,-99.99,,,-99.99,,2013-03-10 14:32:00,
2013-03-10 09:42:00,41.0,-99.9,-100.00,NNE,30,1.0,3.0,-999,-99.99,,,-99.99,,2013-03-10 14:42:00,
2013-03-10 09:52:00,42.0,-99.9,-100.00,NNE,30,2.0,4.0,-999,-99.99,,,-99.99,,2013-03-10 14:52:00,
2013-03-10 10:01:00,42.0,-99.9,-100.00,NNE,30,2.0,4.0,-999,-99.99,,,-99.99,,2013-03-10 15:01:00,
2013-03-10 10:11:00,42.0,-99.9,-100.00,NE,55,2.0,4.0,-999,-99.99,,,-99.99,,2013-03-10 15:11:00,
2013-03-10 10:21:00,42.0,-99.9,-100.00,NNE,25,1.0,3.0,-999,-99.99,,,-99.99,,2013-03-10 15:21:00,
2013-03-10 10:30:00,44.0,-99.9,-100.00,NW,325,1.0,2.0,-999,-99.99,,,-99.99,,2013-03-10 15:30:00,
2013-03-10 10:32:00,42.0,-99.9,-100.00,NNE,25,1.0,3.0,-999,-99.99,,,-99.99,,2013-03-10 15:32:00,
2013-03-10 10:42:00,43.0,-99.9,-100.00,NW,320,1.0,4.0,-999,-99.99,,,-99.99,,2013-03-10 15:42:00,
2013-03-10 10:52:00,43.0,-99.9,-100.00,NW,315,1.0,3.0,-999,-99.99,,,-99.99,,2013-03-10 15:52:00,
2013-03-10 11:02:00,43.0,-99.9,-100.00,NW,315,1.0,3.0,-999,-99.99,,,-99.99,,2013-03-10 16:02:00,
2013-03-10 11:12:00,44.0,-99.9,-100.00,NW,325,1.0,2.0,-999,-99.99,,,-99.99,,2013-03-10 16:12:00,
2013-03-10 11:22:00,44.0,-99.9,-100.00,NW,325,1.0,2.0,-999,-99.99,,,-99.99,,2013-03-10 16:22:00,
2013-03-10 12:52:00,42.0,-99.9,-100.00,NW,310,4.0,6.0,-999,-99.99,,,-99.99,,2013-03-10 17:52:00,
2013-03-10 13:01:00,42.0,-99.9,-100.00,NW,310,4.0,6.0,-999,-99.99,,,-99.99,,2013-03-10 18:01:00,
2013-03-10 13:12:00,42.0,-99.9,-100.00,NNW,335,1.0,5.0,-999,-99.99,,,-99.99,,2013-03-10 18:12:00,
2013-03-10 13:22:00,42.0,-99.9,-100.00,North,355,4.0,4.0,-999,-99.99,,,-99.99,,2013-03-10 18:22:00,
2013-03-10 13:32:00,42.0,-99.9,-100.00,North,355,4.0,4.0,-999,-99.99,,,-99.99,,2013-03-10 18:32:00,
2013-03-10 13:42:00,42.0,-99.9,-100.00,North,355,2.0,4.0,-999,-99.99,,,-99.99,,2013-03-10 18:42:00,
2013-03-10 13:53:00,42.0,-99.9,-100.00,NNE,20,2.0,4.0,-999,-99.99,,,-99.99,,2013-03-10 18:53:00,
2013-03-10 14:02:00,42.0,-99.9,-100.00,NNE,20,2.0,4.0,-999,-99.99,,,-99.99,,2013-03-10 19:02:00,
2013-03-10 14:12:00,42.0,-99.9,-100.00,North,10,3.0,6.0,-999,-99.99,,,-99.99,,2013-03-10 19:12:00,
2013-03-10 14:22:00,42.0,-99.9,-100.00,NNE,20,2.0,6.0,-999,-99.99,,,-99.99,,2013-03-10 19:22:00,
2013-03-10 14:32:00,42.0,-99.9,-100.00,NNE,20,2.0,6.0,-999,-99.99,,,-99.99,,2013-03-10 19:32:00,
2013-03-10 14:42:00,42.0,-99.9,-100.00,North,0,2.0,6.0,-999,-99.99,,,-99.99,,2013-03-10 19:42:00,
2013-03-10 14:53:00,42.0,-99.9,-100.00,NNW,330,1.0,5.0,-999,-99.99,,,-99.99,,2013-03-10 19:53:00,
2013-03-10 15:02:00,42.0,-99.9,-100.00,NNW,330,1.0,5.0,-999,-99.99,,,-99.99,,2013-03-10 20:02:00,
2013-03-10 15:13:00,43.0,-99.9,-100.00,ENE,75,0.0,1.0,-999,-99.99,,,-99.99,,2013-03-10 20:13:00,
2013-03-10 15:22:00,43.0,-99.9,-100.00,ESE,110,0.0,1.0,-999,-99.99,,,-99.99,,2013-03-10 20:22:00,
2013-03-10 15:33:00,43.0,-99.9,-100.00,ESE,110,0.0,1.0,-999,-99.99,,,-99.99,,2013-03-10 20:33:00,
2013-03-10 15:43:00,43.0,-99.9,-100.00,NNW,340,1.0,2.0,-999,-99.99,,,-99.99,,2013-03-10 20:43:00,
2013-03-10 15:53:00,42.0,-99.9,-100.00,North,355,1.0,3.0,-999,-99.99,,,-99.99,,2013-03-10 20:53:00,
2013-03-10 16:02:00,42.0,-99.9,-100.00,North,355,1.0,3.0,-999,-99.99,,,-99.99,,2013-03-10 21:02:00,
2013-03-10 16:12:00,43.0,-99.9,-100.00,North,10,2.0,4.0,-999,-99.99,,,-99.99,,2013-03-10 21:12:00,
2013-03-10 16:23:00,43.0,-99.9,-100.00,NNE,20,2.0,5.0,-999,-99.99,,,-99.99,,2013-03-10 21:23:00,
2013-03-10 16:33:00,43.0,-99.9,-100.00,NNE,20,2.0,5.0,-999,-99.99,,,-99.99,,2013-03-10 21:33:00,
2013-03-10 16:43:00,44.0,-99.9,-100.00,NNE,25,4.0,6.0,-999,-99.99,,,-99.99,,2013-03-10 21:43:00,
2013-03-10 16:53:00,43.0,-99.9,-100.00,North,10,4.0,5.0,-999,-99.99,,,-99.99,,2013-03-10 21:53:00,
2013-03-10 17:03:00,43.0,-99.9,-100.00,North,10,4.0,5.0,-999,-99.99,,,-99.99,,2013-03-10 22:03:00,
2013-03-10 17:12:00,43.0,-99.9,-100.00,North,0,2.0,10.0,-999,-99.99,,,-99.99,,2013-03-10 22:12:00,
2013-03-10 17:23:00,44.0,-99.9,-100.00,North,350,1.0,3.0,-999,-99.99,,,-99.99,,2013-03-10 22:23:00,
2013-03-10 17:33:00,44.0,-99.9,-100.00,North,350,1.0,3.0,-999,-99.99,,,-99.99,,2013-03-10 22:33:00,
2013-03-10 17:43:00,43.0,-99.9,-100.00,South,180,3.0,4.0,-999,-99.99,,,-99.99,,2013-03-10 22:43:00,
2013-03-10 17:53:00,43.0,-99.9,-100.00,SSW,205,1.0,5.0,-999,-99.99,,,-99.99,,2013-03-10 22:53:00,
2013-03-10 18:03:00,43.0,-99.9,-100.00,SSW,205,1.0,5.0,-999,-99.99,,,-99.99,,2013-03-10 23:03:00,
2013-03-10 18:13:00,43.0,-99.9,-100.00,South,190,3.0,6.0,-999,-99.99,,,-99.99,,2013-03-10 23:13:00,
2013-03-10 18:23:00,43.0,-99.9,-100.00,SW,230,4.0,7.0,-999,-99.99,,,-99.99,,2013-03-10 23:23:00,
2013-03-10 18:33:00,42.0,-99.9,-100.00,SW,230,4.0,8.0,-999,-99.99,,,-99.99,,2013-03-10 23:33:00,
2013-03-10 18:43:00,42.0,-99.9,-100.00,SW,230,4.0,8.0,-999,-99.99,,,-99.99,,2013-03-10 23:43:00,
2013-03-10 18:53:00,43.0,-99.9,-100.00,South,180,0.0,4.0,-999,-99.99,,,-99.99,,2013-03-10 23:53:00,
2013-03-10 19:03:00,43.0,-99.9,-100.00,South,180,0.0,4.0,-999,-99.99,,,-99.99,,2013-03-11 00:03:00,
2013-03-10 19:13:00,43.0,-99.9,-100.00,West,265,2.0,6.0,-999,-99.99,,,-99.99,,2013-03-11 00:13:00,
2013-03-10 19:23:00,42.0,-99.9,-100.00,West,260,2.0,6.0,-999,-99.99,,,-99.99,,2013-03-11 00:23:00,
2013-03-10 19:34:00,42.0,-99.9,-100.00,West,260,2.0,6.0,-999,-99.99,,,-99.99,,2013-03-11 00:34:00,
2013-03-10 19:43:00,41.0,-99.9,-100.00,NNW,330,3.0,5.0,-999,-99.99,,,-99.99,,2013-03-11 00:43:00,
2013-03-10 19:53:00,41.0,-99.9,-100.00,NW,325,4.0,6.0,-999,-99.99,,,-99.99,,2013-03-11 00:53:00,
2013-03-10 20:03:00,41.0,-99.9,-100.00,NW,325,4.0,6.0,-999,-99.99,,,-99.99,,2013-03-11 01:03:00,
2013-03-10 20:13:00,41.0,-99.9,-100.00,NW,315,4.0,5.0,-999,-99.99,,,-99.99,,2013-03-11 01:13:00,
2013-03-10 20:23:00,40.0,-99.9,-100.00,SSW,200,3.0,4.0,-999,-99.99,,,-99.99,,2013-03-11 01:23:00,
2013-03-10 20:33:00,40.0,-99.9,-100.00,SSW,200,3.0,4.0,-999,-99.99,,,-99.99,,2013-03-11 01:33:00,
2013-03-10 20:43:00,40.0,-99.9,-100.00,SW,230,4.0,8.0,-999,-99.99,,,-99.99,,2013-03-11 01:43:00,
2013-03-10 20:54:00,40.0,-99.9,-100.00,SW,235,1.0,5.0,-999,-99.99,,,-99.99,,2013-03-11 01:54:00,
2013-03-10 21:03:00,40.0,-99.9,-100.00,SW,235,1.0,5.0,-999,-99.99,,,-99.99,,2013-03-11 02:03:00,
2013-03-10 21:13:00,39.0,-99.9,-100.00,NW,315,0.0,4.0,-999,-99.99,,,-99.99,,2013-03-11 02:13:00,
2013-03-10 21:23:00,39.0,-99.9,-100.00,North,10,1.0,4.0,-999,-99.99,,,-99.99,,2013-03-11 02:23:00,
2013-03-10 21:33:00,39.0,-99.9,-100.00,North,10,1.0,4.0,-999,-99.99,,,-99.99,,2013-03-11 02:33:00,
2013-03-10 21:43:00,39.0,-99.9,-100.00,NNW,335,0.0,1.0,-999,-99.99,,,-99.99,,2013-03-11 02:43:00,
2013-03-10 21:53:00,39.0,-99.9,-100.00,NNW,335,0.0,0.0,-999,-99.99,,,-99.99,,2013-03-11 02:53:00,
2013-03-10 22:02:00,39.0,-99.9,-100.00,NNW,335,0.0,0.0,-999,-99.99,,,-99.99,,2013-03-11 03:02:00,
2013-03-10 22:13:00,38.0,-99.9,-100.00,NW,320,0.0,1.0,-999,-99.99,,,-99.99,,2013-03-11 03:13:00,
2013-03-10 22:22:00,38.0,-99.9,-100.00,West,275,0.0,1.0,-999,-99.99,,,-99.99,,2013-03-11 03:22:00,
2013-03-10 22:32:00,38.0,-99.9,-100.00,West,275,0.0,1.0,-999,-99.99,,,-99.99,,2013-03-11 03:32:00,
2013-03-10 22:43:00,38.0,-99.9,-100.00,WSW,240,0.0,2.0,-999,-99.99,,,-99.99,,2013-03-11 03:43:00,
2013-03-10 22:53:00,38.0,-99.9,-100.00,SSW,205,1.0,5.0,-999,-99.99,,,-99.99,,2013-03-11 03:53:00,
2013-03-10 23:03:00,38.0,-99.9,-100.00,SSW,205,1.0,5.0,-999,-99.99,,,-99.99,,2013-03-11 04:03:00,
2013-03-10 23:12:00,38.0,-99.9,-100.00,SW,225,3.0,6.0,-999,-99.99,,,-99.99,,2013-03-11 04:12:00,
2013-03-10 23:23:00,38.0,-99.9,-100.00,SW,220,2.0,5.0,-999,-99.99,,,-99.99,,2013-03-11 04:23:00,
2013-03-10 23:33:00,38.0,-99.9,-100.00,WNW,295,1.0,4.0,-999,-99.99,,,-99.99,,2013-03-11 04:33:00,
2013-03-10 23:43:00,38.0,-99.9,-100.00,WNW,295,1.0,4.0,-999,-99.99,,,-99.99,,2013-03-11 04:43:00,
2013-03-10 23:53:00,38.0,-99.9,-100.00,WNW,290,2.0,4.0,-999,-99.99,,,-99.99,,2013-03-11 04:53:00,